Flight Track Log - Related Links

Times and Time Zones

All times are in EDT time to prevent confusion due to time zone crossing. See the UAL906 flight status page for this flight to view local times or setup timezone preferences in your user account.


Time Position Orientation Groundspeed Altitude Reporting Facility
EDT Latitude Longitude Course Direction KTS MPH feet Rate Location/Type
Wed 07:12:37 AM 50.0270 8.4970 269° West 197 227 1,700  Level FlightAware ADS-B
Wed 07:12:57 AM 50.0290 8.4680 276° West 198 228 2,500 1,747 Climbing FlightAware ADS-B
Wed 07:13:56 AM 50.0230 8.3800 264° West 229 264 4,000 1,624 Climbing FlightAware ADS-B
Wed 07:14:22 AM 50.0180 8.3350 260° West 245 282 4,800 2,118 Climbing FlightAware ADS-B
Wed 07:14:47 AM 50.0140 8.2910 262° West 253 291 5,800 2,000 Climbing FlightAware ADS-B
Wed 07:15:16 AM 50.0240 8.2370 286° West 274 315 6,600 2,000 Climbing FlightAware ADS-B
Wed 07:15:32 AM 50.0320 8.2100 295° West 282 325 7,300 2,372 Climbing FlightAware ADS-B
Wed 07:15:59 AM 50.0460 8.1630 295° West 278 320 8,300 2,444 Climbing FlightAware ADS-B
Wed 07:16:26 AM 50.0650 8.1110 300° West 284 327 9,500 1,853 Climbing FlightAware ADS-B
Wed 07:17:07 AM 50.0970 8.0450 307° West 309 356 10,400 1,333 Climbing FlightAware ADS-B
Wed 07:17:47 AM 50.1360 7.9700 309° West 335 386 11,300 1,379 Climbing FlightAware ADS-B
Wed 07:18:34 AM 50.1840 7.8770 309° West 360 414 12,400 1,826 Climbing FlightAware ADS-B
Wed 07:19:19 AM 50.2310 7.7850 309° West 361 415 14,100 1,976 Climbing FlightAware ADS-B
Wed 07:19:59 AM 50.2800 7.7200 320° Northwest 373 429 15,200 1,473 Climbing FlightAware ADS-B
Wed 07:21:09 AM 50.3750 7.6560 337° Northwest 385 443 16,800 1,721 Climbing FlightAware ADS-B
Wed 07:22:01 AM 50.4810 7.5840 337° Northwest 384 442 18,700 1,732 Climbing FlightAware ADS-B
Wed 07:22:46 AM 50.5570 7.5290 335° Northwest 402 463 19,600 1,275 Climbing FlightAware ADS-B
Wed 07:23:21 AM 50.6120 7.4750 328° Northwest 403 464 20,400 1,341 Climbing FlightAware ADS-B
Wed 07:24:11 AM 50.6930 7.3910 327° Northwest 412 474 21,500 1,516 Climbing FlightAware ADS-B
Wed 07:24:52 AM 50.7590 7.3230 327° Northwest 410 472 22,700 1,500 Climbing FlightAware ADS-B
Wed 07:26:03 AM 50.8690 7.2100 327° Northwest 422 486 24,300 1,263 Climbing FlightAware ADS-B
Wed 07:26:46 AM 50.9360 7.1120 317° Northwest 420 483 25,100 1,154 Climbing FlightAware ADS-B
Wed 07:27:21 AM 50.9690 7.0210 300° West 427 491 25,800 1,185 Climbing FlightAware ADS-B
Wed 07:28:07 AM 51.0140 6.8940 299° West 431 496 26,700 1,200 Climbing FlightAware ADS-B
Wed 07:28:51 AM 51.0570 6.7700 299° West 436 502 27,600 1,200 Climbing FlightAware ADS-B
Wed 07:29:32 AM 51.0930 6.6630 298° West 435 501 28,400 1,275 Climbing FlightAware ADS-B
Wed 07:30:11 AM 51.1340 6.5450 299° West 436 502 29,300 1,125 Climbing FlightAware ADS-B
Wed 07:30:52 AM 51.1690 6.4440 299° West 438 504 29,900 876 Climbing FlightAware ADS-B
Wed 07:31:40 AM 51.2200 6.2920 298° West 442 509 30,600 955 Climbing FlightAware ADS-B
Wed 07:32:20 AM 51.2640 6.1830 303° West 444 511 31,300 1,357 Climbing FlightAware ADS-B
Wed 07:33:04 AM 51.3270 6.0810 315° West 436 502 32,500 1,429 Climbing FlightAware ADS-B
Wed 07:33:44 AM 51.3860 5.9940 317° Northwest 430 495 33,300 1,098 Climbing FlightAware ADS-B
Wed 07:34:26 AM 51.4450 5.9060 317° Northwest 424 488 34,000 494 Climbing FlightAware ADS-B
Wed 07:35:09 AM 51.5060 5.8140 317° Northwest 424 488 34,000  Level FlightAware ADS-B
Wed 07:35:50 AM 51.5660 5.7250 317° Northwest 424 488 34,000  Level FlightAware ADS-B
Wed 07:36:28 AM 51.6210 5.6420 317° Northwest 423 487 34,000 -91 Level FlightAware ADS-B
Wed 07:36:56 AM 51.6601 5.5791 317° Northwest 482 555 33,900  Descending FlightAware UK
Wed 07:37:16 AM 51.6880 5.5420 317° Northwest 423 487 34,000 125 Climbing FlightAware ADS-B
Wed 07:37:44 AM 51.7279 5.4761 317° Northwest 484 557 34,000  Level FlightAware UK
Wed 07:37:56 AM 51.7470 5.4520 317° Northwest 423 487 34,000  Level FlightAware ADS-B
Wed 07:38:36 AM 51.8030 5.3670 317° Northwest 422 486 34,000 -91 Level FlightAware ADS-B
Wed 07:39:02 AM 51.8396 5.3087 317° Northwest 482 555 33,900  Descending FlightAware UK
Wed 07:39:21 AM 51.8660 5.2710 317° Northwest 422 486 34,000 100 Climbing FlightAware ADS-B
Wed 07:40:02 AM 51.9220 5.1840 316° Northwest 422 486 34,000  Level FlightAware ADS-B
Wed 07:40:46 AM 51.9840 5.0820 315° West 418 481 34,000  Level FlightAware ADS-B
Wed 07:41:24 AM 52.0310 4.9920 310° West 417 480 34,000  Level FlightAware ADS-B
Wed 07:42:06 AM 52.0810 4.8900 309° West 415 478 34,000  Level FlightAware ADS-B
Wed 07:42:44 AM 52.1293 4.7945 309° West 484 557 34,000  Level FlightAware UK
Wed 07:42:52 AM 52.1350 4.7770 309° West 416 479 34,000  Level FlightAware ADS-B
Wed 07:43:26 AM 52.1775 4.6901 309° West 484 557 34,000  Level FlightAware UK
Wed 07:43:33 AM 52.1840 4.6780 309° West 416 479 34,000 -200 Level FlightAware ADS-B
Wed 07:43:56 AM 52.2125 4.6161 309° West 484 557 33,900  Descending FlightAware UK
Wed 07:44:09 AM 52.2270 4.5890 309° West 414 476 34,000 200 Climbing FlightAware ADS-B
Wed 07:44:26 AM 52.2501 4.5445 309° West 484 557 34,000  Level FlightAware UK
Wed 07:44:58 AM 52.2860 4.4690 309° West 414 476 34,000  Level FlightAware ADS-B
Wed 07:45:34 AM 52.3300 4.3780 308° West 412 474 34,000  Level FlightAware ADS-B
Wed 07:46:16 AM 52.3790 4.2760 308° West 412 474 34,000  Level FlightAware ADS-B
Wed 07:46:37 AM 52.4054 4.2218 308° West 482 555 34,000  Level FlightAware UK
Wed 07:47:04 AM 52.4350 4.1600 308° West 412 474 34,000 -91 Level FlightAware ADS-B
Wed 07:47:43 AM 52.4835 4.0604 308° West 480 552 33,900  Descending FlightAware UK
Wed 07:47:44 AM 52.4820 4.0610 308° West 412 474 34,000 133 Climbing FlightAware ADS-B
Wed 07:48:28 AM 52.5320 3.9560 308° West 413 475 34,000  Level FlightAware ADS-B
Wed 07:49:08 AM 52.5790 3.8570 308° West 412 474 34,000 -74 Level FlightAware ADS-B
Wed 07:49:49 AM 52.6306 3.7496 308° West 482 555 33,900  Descending FlightAware UK
Wed 07:49:50 AM 52.6290 3.7520 308° West 412 474 34,000 100 Climbing FlightAware ADS-B
Wed 07:50:49 AM 52.7005 3.6014 308° West 484 557 34,000  Level FlightAware UK
Wed 07:50:59 AM 52.6920 3.6180 308° West 411 473 34,000 -200 Level FlightAware ADS-B
Wed 07:51:19 AM 52.7354 3.5271 308° West 482 555 33,900  Descending FlightAware UK
Wed 07:51:38 AM 52.7550 3.4830 308° West 411 473 34,000 94 Climbing FlightAware ADS-B
Wed 07:52:23 AM 52.8090 3.3680 308° West 411 473 34,000 -72 Level FlightAware ADS-B
Wed 07:53:01 AM 52.8461 3.2682 308° West 486 559 33,900  Descending FlightAware UK
Wed 07:53:07 AM 52.8500 3.2530 308° West 402 463 34,000  Climbing FlightAware ADS-B
Wed 07:53:37 AM 52.8689 3.1648 308° West 486 559 33,900  Descending FlightAware UK
Wed 07:53:47 AM 52.8740 3.1380 308° West 400 460 34,000 143 Climbing FlightAware ADS-B
Wed 07:54:19 AM 52.8921 3.0430 308° West 486 559 34,000  Level FlightAware UK
Wed 07:54:31 AM 52.8980 3.0100 308° West 399 459 34,000  Level FlightAware ADS-B
Wed 07:54:49 AM 52.9086 2.9559 308° West 486 559 34,000  Level FlightAware UK
Wed 07:55:12 AM 52.9210 2.8900 308° West 397 457 34,000  Level FlightAware ADS-B
Wed 07:55:54 AM 52.9420 2.7740 287° West 396 456 34,000 -90 Level FlightAware ADS-B
Wed 07:56:19 AM 52.9572 2.6945 287° West 484 557 33,900  Descending FlightAware UK
Wed 07:56:37 AM 52.9660 2.6440 287° West 396 456 34,000 125 Climbing FlightAware ADS-B
Wed 07:57:07 AM 52.9829 2.5562 287° West 486 559 34,000  Level FlightAware UK
Wed 07:57:17 AM 52.9880 2.5300 287° West 396 456 34,000 -143 Level FlightAware ADS-B
Wed 07:57:49 AM 53.0052 2.4346 287° West 484 557 33,900  Descending FlightAware UK
Wed 07:58:02 AM 53.0120 2.3980 287° West 394 453 34,000 200 Climbing FlightAware ADS-B
Wed 07:58:19 AM 53.0210 2.3480 287° West 486 559 34,000  Level FlightAware UK
Wed 07:58:42 AM 53.0320 2.2840 287° West 394 453 34,000  Level FlightAware ADS-B
Wed 07:59:07 AM 53.0458 2.2096 287° West 395 455 34,000 -122 Level FlightAware ADS-B
Wed 07:59:31 AM 53.0586 2.1396 287° West 486 559 33,900  Descending FlightAware UK
Wed 07:59:43 AM 53.0647 2.1047 287° West 395 455 34,000  Climbing FlightAware ADS-B
Wed 08:00:01 AM 53.0741 2.0529 287° West 484 557 33,900  Descending FlightAware UK
Wed 08:00:19 AM 53.0832 2.0013 287° West 393 452 34,000 143 Climbing FlightAware ADS-B
Wed 08:00:43 AM 53.0956 1.9315 287° West 484 557 34,000  Level FlightAware UK
Wed 08:00:53 AM 53.1006 1.9035 287° West 392 451 34,000  Level FlightAware ADS-B
Wed 08:01:23 AM 53.1163 1.8152 287° West 392 451 34,000  Level FlightAware ADS-B
Wed 08:01:49 AM 53.1295 1.7415 287° West 484 557 34,000  Level FlightAware UK
Wed 08:01:58 AM 53.1337 1.7165 287° West 391 450 34,000  Level FlightAware ADS-B
Wed 08:02:19 AM 53.1447 1.6550 287° West 482 555 34,000  Level FlightAware UK
Wed 08:02:29 AM 53.1494 1.6260 287° West 391 450 34,000  Level FlightAware ADS-B
Wed 08:02:49 AM 53.1599 1.5684 287° West 482 555 34,000  Level FlightAware UK
Wed 08:03:13 AM 53.1714 1.4996 287° West 391 450 34,000  Level FlightAware ADS-B
Wed 08:03:43 AM 53.1865 1.4125 286° West 391 450 34,000  Level FlightAware ADS-B
Wed 08:04:01 AM 53.1956 1.3609 286° West 482 555 34,000  Level FlightAware UK
Wed 08:04:16 AM 53.2029 1.3175 286° West 391 450 34,000  Level FlightAware ADS-B
Wed 08:04:37 AM 53.2134 1.2569 286° West 484 557 34,000  Level FlightAware UK
Wed 08:04:46 AM 53.2180 1.2291 286° West 391 450 34,000  Level FlightAware ADS-B
Wed 08:05:13 AM 53.2310 1.1528 286° West 484 557 34,000  Level FlightAware UK
Wed 08:05:18 AM 53.2337 1.1368 286° West 392 451 34,000  Level FlightAware ADS-B
Wed 08:05:48 AM 53.2488 1.0491 286° West 486 559 34,000  Level FlightAware UK
Wed 08:06:18 AM 53.2633 0.9620 286° West 484 557 34,000  Level FlightAware UK
Wed 08:06:27 AM 53.2673 0.9382 286° West 391 450 34,000  Level FlightAware ADS-B
Wed 08:06:59 AM 53.2830 0.8445 286° West 390 449 34,000  Level FlightAware ADS-B
Wed 08:07:18 AM 53.2923 0.7882 286° West 482 555 34,000  Level FlightAware UK
Wed 08:07:35 AM 53.3004 0.7402 286° West 389 448 34,000  Level FlightAware ADS-B
Wed 08:08:18 AM 53.3208 0.6170 286° West 389 448 34,000  Level FlightAware ADS-B
Wed 08:08:49 AM 53.3356 0.5267 285° West 388 447 34,000  Level FlightAware ADS-B
Wed 08:09:06 AM 53.3438 0.4769 285° West 484 557 34,000  Level FlightAware UK
Wed 08:09:22 AM 53.3510 0.4330 285° West 388 447 34,000  Level FlightAware ADS-B
Wed 08:09:52 AM 53.3652 0.3458 285° West 388 447 34,000  Level FlightAware ADS-B
Wed 08:10:26 AM 53.3809 0.2484 285° West 387 445 34,000  Level FlightAware ADS-B
Wed 08:10:58 AM 53.3958 0.1565 285° West 386 444 34,000  Level FlightAware ADS-B
Wed 08:11:29 AM 53.4102 0.0660 285° West 386 444 34,000  Level FlightAware ADS-B
Wed 08:12:01 AM 53.4248 -0.0258 285° West 386 444 34,000  Level FlightAware ADS-B
Wed 08:12:37 AM 53.4414 -0.1303 285° West 385 443 34,000 -113 Level FlightAware ADS-B
Wed 08:12:54 AM 53.4489 -0.1786 285° West 482 555 33,900  Descending FlightAware UK
Wed 08:13:08 AM 53.4551 -0.2178 285° West 384 442 34,000 118 Climbing FlightAware ADS-B
Wed 08:13:45 AM 53.4719 -0.3256 285° West 386 444 34,000  Level FlightAware ADS-B
Wed 08:14:19 AM 53.4874 -0.4248 285° West 386 444 34,000  Level FlightAware ADS-B
Wed 08:14:36 AM 53.4945 -0.4725 285° West 484 557 34,000  Level FlightAware UK
Wed 08:15:25 AM 53.5165 -0.6137 285° West 386 444 34,000  Level FlightAware ADS-B
Wed 08:15:41 AM 53.5240 -0.6629 285° West 484 557 34,000  Level FlightAware UK
Wed 08:15:55 AM 53.5301 -0.7028 285° West 386 444 34,000  Level FlightAware ADS-B
Wed 08:16:33 AM 53.5464 -0.8105 284° West 386 444 34,000  Level FlightAware ADS-B
Wed 08:17:08 AM 53.5617 -0.9115 284° West 385 443 34,000  Level FlightAware ADS-B
Wed 08:17:38 AM 53.5749 -0.9996 284° West 384 442 34,000  Level FlightAware ADS-B
Wed 08:17:59 AM 53.5839 -1.0613 284° West 484 557 34,000  Level FlightAware UK
Wed 08:18:09 AM 53.5880 -1.0876 284° West 384 442 34,000  Level FlightAware ADS-B
Wed 08:18:29 AM 53.5970 -1.1475 284° West 484 557 34,000  Level FlightAware UK
Wed 08:18:42 AM 53.6022 -1.1831 284° West 383 441 34,000  Level FlightAware ADS-B
Wed 08:19:05 AM 53.6122 -1.2508 284° West 484 557 34,000  Level FlightAware UK
Wed 08:19:14 AM 53.6158 -1.2754 284° West 383 441 34,000  Level FlightAware ADS-B
Wed 08:19:44 AM 53.6286 -1.3628 284° West 383 441 34,000  Level FlightAware ADS-B
Wed 08:20:11 AM 53.6399 -1.4413 284° West 484 557 34,000  Level FlightAware UK
Wed 08:20:23 AM 53.6450 -1.4761 284° West 383 441 34,000  Level FlightAware ADS-B
Wed 08:20:41 AM 53.6526 -1.5279 284° West 484 557 34,000  Level FlightAware UK
Wed 08:20:54 AM 53.6611 -1.5640 284° West 383 441 34,000  Level FlightAware ADS-B
Wed 08:21:11 AM 53.6720 -1.6130 284° West 482 555 34,000  Level FlightAware UK
Wed 08:21:38 AM 53.6894 -1.6891 284° West 389 448 34,000  Level FlightAware ADS-B
Wed 08:22:15 AM 53.7129 -1.7921 291° West 389 448 34,000 -105 Level FlightAware ADS-B
Wed 08:22:35 AM 53.7260 -1.8494 291° West 480 552 33,900  Descending FlightAware UK
Wed 08:22:49 AM 53.7354 -1.8900 291° West 390 449 34,000 200 Climbing FlightAware ADS-B
Wed 08:23:05 AM 53.7456 -1.9341 291° West 482 555 34,000  Level FlightAware UK
Wed 08:23:23 AM 53.7580 -1.9870 291° West 390 449 34,000  Level FlightAware ADS-B
Wed 08:23:40 AM 53.7693 -2.0354 291° West 482 555 34,000  Level FlightAware UK
Wed 08:24:02 AM 53.7834 -2.0964 291° West 392 451 34,000  Level FlightAware ADS-B
Wed 08:24:32 AM 53.8033 -2.1820 292° West 392 451 34,000  Level FlightAware ADS-B
Wed 08:25:10 AM 53.8279 -2.2922 292° West 486 559 34,000  Level FlightAware UK
Wed 08:25:24 AM 53.8340 -2.3300 292° West 386 444 34,000  Level FlightAware ADS-B
Wed 08:25:46 AM 53.8437 -2.3965 292° West 486 559 34,000  Level FlightAware UK
Wed 08:25:58 AM 53.8430 -2.3960 292° West 382 440 34,000 -200 Level FlightAware ADS-B
Wed 08:26:16 AM 53.8521 -2.4841 292° West 484 557 33,900  Descending FlightAware UK
Wed 08:26:46 AM 53.8601 -2.5718 279° West 486 559 34,000 200 Climbing FlightAware UK
Wed 08:26:46 AM 53.8500 -2.4660 279° West 378 435 34,000  Level FlightAware ADS-B
Wed 08:27:16 AM 53.8680 -2.6598 279° West 488 562 34,000  Level FlightAware UK
Wed 08:27:29 AM 53.8680 -2.6600 279° West 380 437 34,000 -125 Level FlightAware ADS-B
Wed 08:28:04 AM 53.8798 -2.8001 279° West 486 559 33,900  Descending FlightAware UK
Wed 08:28:07 AM 53.8800 -2.8040 279° West 378 435 34,000 200 Climbing FlightAware ADS-B
Wed 08:28:34 AM 53.8869 -2.8880 279° West 486 559 34,000  Level FlightAware UK
Wed 08:28:51 AM 53.8910 -2.9360 279° West 378 435 34,000  Level FlightAware ADS-B
Wed 08:29:33 AM 53.9010 -3.0560 278° West 378 435 34,000  Level FlightAware ADS-B
Wed 08:30:12 AM 53.9140 -3.1670 278° West 386 444 34,000  Level FlightAware ADS-B
Wed 08:30:16 AM 53.9174 -3.1851 278° West 486 559 34,000 -150 Level FlightAware UK
Wed 08:30:52 AM 53.9447 -3.2863 278° West 484 557 33,900  Descending FlightAware UK
Wed 08:30:57 AM 53.9480 -3.2960 278° West 404 465 34,000  Climbing FlightAware ADS-B
Wed 08:31:22 AM 53.9722 -3.3688 278° West 484 557 33,900  Descending FlightAware UK
Wed 08:31:38 AM 53.9840 -3.4070 278° West 403 464 34,000 125 Climbing FlightAware ADS-B
Wed 08:32:10 AM 54.0157 -3.5016 278° West 484 557 34,000  Level FlightAware UK
Wed 08:32:19 AM 54.0220 -3.5200 278° West 404 465 34,000  Level FlightAware ADS-B
Wed 08:32:40 AM 54.0431 -3.5846 278° West 484 557 34,000  Level FlightAware UK
Wed 08:33:05 AM 54.0620 -3.6440 278° West 403 464 34,000 -92 Level FlightAware ADS-B
Wed 08:33:45 AM 54.1027 -3.7669 278° West 482 555 33,900  Descending FlightAware UK
Wed 08:33:45 AM 54.1020 -3.7650 278° West 404 465 34,000 167 Climbing FlightAware ADS-B
Wed 08:34:21 AM 54.1340 -3.8620 278° West 405 466 34,000 -143 Level FlightAware ADS-B
Wed 08:34:27 AM 54.1406 -3.8837 278° West 484 557 33,900  Descending FlightAware UK
Wed 08:35:09 AM 54.1770 -3.9940 299° West 404 465 34,000 72 Climbing FlightAware ADS-B
Wed 08:35:50 AM 54.2150 -4.1140 298° West 404 465 34,000 -71 Level FlightAware ADS-B
Wed 08:36:33 AM 54.2539 -4.2347 298° West 484 557 33,900  Descending FlightAware UK
Wed 08:36:34 AM 54.2540 -4.2360 298° West 404 465 34,000 200 Climbing FlightAware ADS-B
Wed 08:37:03 AM 54.2807 -4.3188 298° West 484 557 34,000  Level FlightAware UK
Wed 08:37:14 AM 54.2910 -4.3500 298° West 406 467 34,000 -200 Level FlightAware ADS-B
Wed 08:37:33 AM 54.3075 -4.4032 298° West 482 555 33,900  Descending FlightAware UK
Wed 08:37:56 AM 54.3280 -4.4680 298° West 407 468 34,000  Climbing FlightAware ADS-B
Wed 08:38:33 AM 54.3613 -4.5728 298° West 482 555 33,900  Descending FlightAware UK
Wed 08:38:39 AM 54.3650 -4.5850 298° West 406 467 34,000 167 Climbing FlightAware ADS-B
Wed 08:39:09 AM 54.3932 -4.6742 298° West 482 555 34,000  Level FlightAware UK
Wed 08:39:19 AM 54.4010 -4.7000 298° West 408 470 34,000  Level FlightAware ADS-B
Wed 08:39:45 AM 54.4253 -4.7767 298° West 482 555 34,000  Level FlightAware UK
Wed 08:40:05 AM 54.4410 -4.8260 298° West 408 470 34,000 -167 Level FlightAware ADS-B
Wed 08:40:21 AM 54.4574 -4.8793 298° West 480 552 33,900  Descending FlightAware UK
Wed 08:40:41 AM 54.4730 -4.9300 298° West 409 471 34,000 109 Climbing FlightAware ADS-B
Wed 08:41:16 AM 54.5050 -5.0330 298° West 409 471 34,000 -150 Level FlightAware ADS-B
Wed 08:41:21 AM 54.5106 -5.0511 298° West 478 550 33,900  Descending FlightAware UK
Wed 08:41:51 AM 54.5373 -5.1376 298° West 476 548 34,000 133 Climbing FlightAware UK
Wed 08:42:06 AM 54.5500 -5.1780 298° West 414 476 34,000  Level FlightAware ADS-B
Wed 08:42:21 AM 54.5641 -5.2247 298° West 478 550 34,000  Level FlightAware UK
Wed 08:42:46 AM 54.5850 -5.2920 298° West 417 480 34,000  Level FlightAware ADS-B
Wed 08:43:03 AM 54.6019 -5.3472 298° West 478 550 34,000  Level FlightAware UK
Wed 08:43:26 AM 54.6220 -5.4120 298° West 420 483 34,000  Level FlightAware ADS-B
Wed 08:44:03 AM 54.6557 -5.5249 298° West 480 552 34,000  Level FlightAware UK
Wed 08:44:06 AM 54.6570 -5.5300 298° West 423 487 34,000  Level FlightAware ADS-B
Wed 08:44:33 AM 54.6830 -5.6150 298° West 480 552 34,000  Level FlightAware UK
Wed 08:44:51 AM 54.6990 -5.6680 298° West 426 490 34,000  Level FlightAware ADS-B
Wed 08:45:16 AM 54.7210 -5.7400 298° West 427 491 34,000  Level FlightAware ADS-B
Wed 08:45:33 AM 54.7375 -5.7961 298° West 478 550 34,000 255 Level FlightAware UK
Wed 08:46:03 AM 54.7646 -5.8870 298° West 476 548 34,200 500 Climbing FlightAware UK
Wed 08:46:33 AM 54.7910 -5.9750 298° West 430 495 34,500 545 Climbing FlightAware ADS-B
Wed 08:47:09 AM 54.8253 -6.0909 298° West 478 550 34,800 414 Climbing FlightAware UK
Wed 08:47:31 AM 54.8360 -6.1290 298° West 435 501 34,900 203 Climbing FlightAware ADS-B
Wed 08:48:08 AM 54.8790 -6.2740 297° West 442 509 35,000  Climbing FlightAware ADS-B
Wed 08:48:45 AM 54.9144 -6.3935 297° West 486 559 34,900  Descending FlightAware UK
Wed 08:48:53 AM 54.9210 -6.4160 297° West 442 509 35,000  Climbing FlightAware ADS-B
Wed 08:49:15 AM 54.9423 -6.4893 297° West 484 557 34,900  Descending FlightAware UK
Wed 08:49:33 AM 54.9590 -6.5460 297° West 442 509 35,000  Climbing FlightAware ADS-B
Wed 08:49:51 AM 54.9755 -6.6043 297° West 484 557 34,900  Descending FlightAware UK
Wed 08:50:13 AM 54.9930 -6.6640 297° West 443 510 35,000  Climbing FlightAware ADS-B
Wed 08:50:21 AM 55.0033 -6.7002 297° West 484 557 34,900  Descending FlightAware UK
Wed 08:50:51 AM 55.0310 -6.7966 297° West 484 557 35,000  Climbing FlightAware UK
Wed 08:51:21 AM 55.0586 -6.8933 297° West 482 555 34,900  Descending FlightAware UK
Wed 08:51:25 AM 55.0610 -6.9020 297° West 445 512 35,000  Climbing FlightAware ADS-B
Wed 08:51:51 AM 55.0865 -6.9901 297° West 482 555 34,900  Descending FlightAware UK
Wed 08:52:06 AM 55.0980 -7.0310 297° West 446 513 35,000 200 Climbing FlightAware ADS-B
Wed 08:52:21 AM 55.1141 -7.0874 297° West 480 552 35,000  Level FlightAware UK
Wed 08:52:45 AM 55.1350 -7.1620 296° West 447 514 35,000  Level FlightAware ADS-B
Wed 08:52:51 AM 55.1416 -7.1851 296° West 482 555 35,000  Level FlightAware UK
Wed 08:53:21 AM 55.1693 -7.2831 296° West 484 557 35,000  Level FlightAware UK
Wed 08:53:30 AM 55.1760 -7.3060 296° West 450 518 35,000  Level FlightAware ADS-B
Wed 08:53:51 AM 55.1969 -7.3816 296° West 486 559 35,000  Level FlightAware UK
Wed 08:54:09 AM 55.2120 -7.4370 296° West 450 518 35,000 -128 Level FlightAware ADS-B
Wed 08:54:38 AM 55.2409 -7.5393 296° West 484 557 34,900  Descending FlightAware UK
Wed 08:54:55 AM 55.2540 -7.5880 296° West 452 520 35,000 100 Climbing FlightAware ADS-B
Wed 08:55:38 AM 55.2920 -7.7240 296° West 454 522 35,000  Level FlightAware ADS-B
Wed 08:56:08 AM 55.3236 -7.8386 296° West 484 557 35,000  Level FlightAware UK
Wed 08:56:17 AM 55.3290 -7.8600 296° West 458 527 35,000  Level FlightAware ADS-B
Wed 08:56:38 AM 55.3510 -7.9391 296° West 486 559 35,000  Level FlightAware UK
Wed 08:57:01 AM 55.3700 -8.0080 296° West 456 525 35,000  Level FlightAware ADS-B
Wed 08:57:38 AM 55.4060 -8.1409 296° West 488 562 35,000  Level FlightAware UK
Wed 08:57:45 AM 55.4110 -8.1580 296° West 460 529 35,000  Level FlightAware ADS-B
Wed 08:58:14 AM 55.4389 -8.2625 296° West 486 559 35,000  Level FlightAware UK
Wed 08:58:21 AM 55.4430 -8.2780 296° West 461 531 35,000 -200 Level FlightAware ADS-B
Wed 08:58:44 AM 55.4661 -8.3642 296° West 484 557 34,900  Descending FlightAware UK
Wed 08:59:05 AM 55.4840 -8.4300 296° West 463 533 35,000 100 Climbing FlightAware ADS-B
Wed 08:59:44 AM 55.5208 -8.5686 296° West 486 559 35,000  Level FlightAware UK
Wed 08:59:51 AM 55.5260 -8.5860 296° West 464 534 35,000  Level FlightAware ADS-B
Wed 09:00:14 AM 55.5482 -8.6713 296° West 486 559 35,000  Level FlightAware UK
Wed 09:00:50 AM 55.5805 -8.7944 295° West 486 559 35,000  Level FlightAware UK
Wed 09:00:53 AM 55.5720 -8.7630 295° West 465 535 35,000  Level FlightAware ADS-B
Wed 09:01:20 AM 55.6076 -8.8979 295° West 486 559 35,000  Level FlightAware UK
Wed 09:01:37 AM 55.6220 -8.9520 295° West 467 537 35,000  Level FlightAware ADS-B
Wed 09:02:22 AM 55.6610 -9.1030 295° West 466 536 35,000  Level FlightAware ADS-B
Wed 09:03:00 AM 55.6930 -9.2240 295° West 467 537 35,000  Level FlightAware ADS-B
Wed 09:03:37 AM 55.7290 -9.3650 294° West 468 539 35,000  Level FlightAware ADS-B
Wed 09:04:24 AM 55.7680 -9.5200 294° West 468 539 35,000  Level FlightAware ADS-B
Wed 09:05:05 AM 55.8070 -9.6730 294° West 469 540 35,000  Level FlightAware ADS-B
Wed 09:05:46 AM 55.8440 -9.8190 294° West 470 541 35,000  Level FlightAware ADS-B
Wed 09:06:31 AM 55.8830 -9.9760 294° West 471 542 35,000  Level FlightAware ADS-B
Wed 09:07:11 AM 55.9100 -10.0840 294° West 468 539 35,000  Level FlightAware ADS-B
Wed 09:07:56 AM 55.9570 -10.2740 294° West 473 544 35,000  Level FlightAware ADS-B
Wed 09:08:47 AM 55.9960 -10.4360 293° West 470 541 35,000  Level FlightAware ADS-B
Wed 09:09:31 AM 56.0390 -10.6060 294° West 471 542 35,000  Level FlightAware ADS-B
Wed 09:10:18 AM 56.0730 -10.7560 292° West 471 542 35,000  Level FlightAware ADS-B
Wed 09:11:57 AM 56.1510 -11.0890 291° West 472 543 35,000  Level FlightAware ADS-B
Wed 09:12:00 AM 56.1458 -11.1060 291° West  Level FlightAware Approximate
Wed 09:12:33 AM 56.1760 -11.2010 292° West 472 543 35,000  Level FlightAware ADS-B
Wed 09:13:16 AM 56.2350 -11.4340 295° West 476 548 35,000  Level FlightAware ADS-B
Wed 09:14:13 AM 56.2750 -11.6140 292° West 475 547 35,000  Level FlightAware ADS-B
Wed 09:14:55 AM 56.3190 -11.7940 294° West 35,000  Level FlightAware ADS-B
Wed 09:15:31 AM 56.3410 -11.8930 292° West 478 550 35,000 76 Level FlightAware ADS-B
Wed 09:16:14 AM 56.3720 -12.0290 292° West 477 549 35,100 65 Climbing FlightAware ADS-B
Wed 09:17:04 AM 56.4080 -12.1860 293° West 477 549 35,100  Level FlightAware ADS-B
Wed 09:17:40 AM 56.4330 -12.3000 292° West 477 549 35,100  Level FlightAware ADS-B
Wed 09:18:26 AM 56.4650 -12.4440 292° West 477 549 35,100  Level FlightAware ADS-B
Wed 09:19:02 AM 56.4900 -12.5580 292° West 477 549 35,100  Level FlightAware ADS-B
Wed 09:19:49 AM 56.5230 -12.7060 292° West 477 549 35,100  Level FlightAware ADS-B
Wed 09:20:25 AM 56.5490 -12.8190 293° West 477 549 35,100  Level FlightAware ADS-B
Wed 09:21:19 AM 56.5870 -12.9900 292° West 477 549 35,100  Level FlightAware ADS-B
Wed 09:21:57 AM 56.6130 -13.1100 292° West 477 549 35,100  Level FlightAware ADS-B
Wed 09:22:46 AM 56.6480 -13.2650 292° West 477 549 35,100  Level FlightAware ADS-B
Wed 09:23:22 AM 56.6730 -13.3790 292° West 477 549 35,100  Level FlightAware ADS-B
Wed 09:24:10 AM 56.7070 -13.5310 292° West 477 549 35,100  Level FlightAware ADS-B
Wed 09:24:59 AM 56.7410 -13.6860 292° West 477 549 35,100  Level FlightAware ADS-B
Wed 09:25:49 AM 56.7760 -13.8450 292° West 477 549 35,100 36 Level FlightAware ADS-B
Wed 09:28:00 AM 56.8903 -14.2976 292° West  Level FlightAware Approximate
Wed 09:29:00 AM 56.9374 -14.5092 292° West  Level FlightAware Approximate
Wed 09:30:00 AM 56.9841 -14.7214 292° West  Level FlightAware Approximate
Wed 09:31:00 AM 57.0305 -14.9341 292° West  Level FlightAware Approximate
Wed 09:32:00 AM 57.0762 -15.1457 292° West  Level FlightAware Approximate
Wed 09:33:00 AM 57.1215 -15.3579 292° West  Level FlightAware Approximate
Wed 09:34:00 AM 57.1665 -15.5705 291° West  Level FlightAware Approximate
Wed 09:35:00 AM 57.2111 -15.7837 291° West  Level FlightAware Approximate
Wed 09:36:00 AM 57.2553 -15.9974 291° West  Level FlightAware Approximate
Wed 09:37:00 AM 57.2992 -16.2116 291° West  Level FlightAware Approximate
Wed 09:38:00 AM 57.3427 -16.4263 291° West  Level FlightAware Approximate
Wed 09:39:00 AM 57.3859 -16.6415 290° West  Level FlightAware Approximate
Wed 09:40:00 AM 57.4286 -16.8572 290° West  Level FlightAware Approximate
Wed 09:41:00 AM 57.4711 -17.0735 290° West  Level FlightAware Approximate
Wed 09:42:00 AM 57.5131 -17.2902 290° West  Level FlightAware Approximate
Wed 09:43:00 AM 57.5548 -17.5074 290° West  Level FlightAware Approximate
Wed 09:44:00 AM 57.5961 -17.7251 290° West  Level FlightAware Approximate
Wed 09:45:00 AM 57.6370 -17.9433 289° West  Level FlightAware Approximate
Wed 09:46:00 AM 57.6775 -18.1620 289° West  Level FlightAware Approximate
Wed 09:47:00 AM 57.7177 -18.3812 289° West  Level FlightAware Approximate
Wed 09:48:00 AM 57.7575 -18.6009 289° West  Level FlightAware Approximate
Wed 09:49:00 AM 57.7969 -18.8211 289° West  Level FlightAware Approximate
Wed 09:50:00 AM 57.8359 -19.0417 288° West  Level FlightAware Approximate
Wed 09:50:00 AM 58.0000 -20.0000 285° West 503 579 36,000  Level ETMS Enhanced Traffic Management System
Wed 09:51:00 AM 57.8745 -19.2628 288° West  Level FlightAware Approximate
Wed 09:52:00 AM 57.9128 -19.4844 288° West  Level FlightAware Approximate
Wed 09:53:00 AM 57.9506 -19.7064 288° West  Level FlightAware Approximate
Wed 09:54:00 AM 57.9881 -19.9289 288° West  Level FlightAware Approximate
Wed 09:55:00 AM 58.0219 -20.1538 285° West  Level FlightAware Approximate
Wed 09:56:00 AM 58.2090 -21.5381 284° West 503 579 36,000  Level FlightAware Transoceanic
Wed 09:57:00 AM 58.2420 -21.7962 284° West 503 579 36,000  Level FlightAware Transoceanic
Wed 09:58:00 AM 58.2745 -22.0548 283° West 503 579 36,000  Level FlightAware Transoceanic
Wed 09:59:00 AM 58.3065 -22.3138 283° West 503 579 36,000  Level FlightAware Transoceanic
Wed 10:00:00 AM 58.3380 -22.5733 283° West 503 579 36,000  Level FlightAware Transoceanic
Wed 10:01:00 AM 58.3689 -22.8333 283° West 503 579 36,000  Level FlightAware Transoceanic
Wed 10:02:00 AM 58.3993 -23.0937 282° West 503 579 36,000  Level FlightAware Transoceanic
Wed 10:03:00 AM 58.4292 -23.3545 282° West 503 579 36,000  Level FlightAware Transoceanic
Wed 10:04:00 AM 58.4585 -23.6158 282° West 503 579 36,000  Level FlightAware Transoceanic
Wed 10:05:00 AM 58.4873 -23.8775 282° West 503 579 36,000  Level FlightAware Transoceanic
Wed 10:06:00 AM 58.5156 -24.1397 282° West 503 579 36,000  Level FlightAware Transoceanic
Wed 10:07:00 AM 58.5433 -24.4023 281° West 503 579 36,000  Level FlightAware Transoceanic
Wed 10:08:00 AM 58.5705 -24.6652 281° West 503 579 36,000  Level FlightAware Transoceanic
Wed 10:09:00 AM 58.5972 -24.9286 281° West 503 579 36,000  Level FlightAware Transoceanic
Wed 10:10:00 AM 58.6233 -25.1924 281° West 503 579 36,000  Level FlightAware Transoceanic
Wed 10:11:00 AM 58.6489 -25.4566 280° West 503 579 36,000  Level FlightAware Transoceanic
Wed 10:12:00 AM 58.6740 -25.7211 280° West 503 579 36,000  Level FlightAware Transoceanic
Wed 10:13:00 AM 58.6985 -25.9861 280° West 503 579 36,000  Level FlightAware Transoceanic
Wed 10:14:00 AM 58.7224 -26.2514 280° West 503 579 36,000  Level FlightAware Transoceanic
Wed 10:15:00 AM 58.7458 -26.5170 280° West 503 579 36,000  Level FlightAware Transoceanic
Wed 10:16:00 AM 58.7687 -26.7830 279° West 503 579 36,000  Level FlightAware Transoceanic
Wed 10:17:00 AM 58.7910 -27.0494 279° West 503 579 36,000  Level FlightAware Transoceanic
Wed 10:18:00 AM 58.8128 -27.3161 279° West 503 579 36,000  Level FlightAware Transoceanic
Wed 10:19:00 AM 58.8340 -27.5831 279° West 503 579 36,000  Level FlightAware Transoceanic
Wed 10:20:00 AM 58.8547 -27.8505 278° West 503 579 36,000  Level FlightAware Transoceanic
Wed 10:21:00 AM 58.8748 -28.1182 278° West 503 579 36,000  Level FlightAware Transoceanic
Wed 10:22:00 AM 58.8943 -28.3861 278° West 503 579 36,000  Level FlightAware Transoceanic
Wed 10:23:00 AM 58.9133 -28.6544 278° West 503 579 36,000  Level FlightAware Transoceanic
Wed 10:24:00 AM 58.9318 -28.9230 277° West 503 579 36,000  Level FlightAware Transoceanic
Wed 10:25:00 AM 58.9497 -29.1918 277° West 503 579 36,000  Level FlightAware Transoceanic
Wed 10:26:00 AM 58.9670 -29.4610 277° West 503 579 36,000  Level FlightAware Transoceanic
Wed 10:27:00 AM 58.9838 -29.7304 277° West 503 579 36,000  Level FlightAware Transoceanic
Wed 10:28:00 AM 58.9982 -29.9691 277° West  Level FlightAware Approximate
Wed 10:29:00 AM 59.0121 -30.2080 277° West  Level FlightAware Approximate
Wed 10:30:00 AM 59.0067 -30.1777 274° West  Level FlightAware Approximate
Wed 10:31:00 AM 59.0154 -30.4176 274° West  Level FlightAware Approximate
Wed 10:32:00 AM 59.0237 -30.6576 274° West  Level FlightAware Approximate
Wed 10:33:00 AM 59.0315 -30.8978 274° West  Level FlightAware Approximate
Wed 10:34:00 AM 59.0389 -31.1380 274° West  Level FlightAware Approximate
Wed 10:35:00 AM 59.0458 -31.3784 273° West  Level FlightAware Approximate
Wed 10:36:00 AM 59.0523 -31.6188 273° West  Level FlightAware Approximate
Wed 10:37:00 AM 59.0584 -31.8593 273° West  Level FlightAware Approximate
Wed 10:38:00 AM 59.0640 -32.0999 273° West  Level FlightAware Approximate
Wed 10:39:00 AM 59.0691 -32.3406 272° West  Level FlightAware Approximate
Wed 10:40:00 AM 59.0738 -32.5814 272° West  Level FlightAware Approximate
Wed 10:41:00 AM 59.0781 -32.8222 272° West  Level FlightAware Approximate
Wed 10:42:00 AM 59.0819 -33.0630 272° West  Level FlightAware Approximate
Wed 10:43:00 AM 59.0853 -33.3040 272° West  Level FlightAware Approximate
Wed 10:44:00 AM 59.0882 -33.5449 271° West  Level FlightAware Approximate
Wed 10:45:00 AM 59.0907 -33.7859 271° West  Level FlightAware Approximate
Wed 10:46:00 AM 59.0927 -34.0270 271° West  Level FlightAware Approximate
Wed 10:47:00 AM 59.0943 -34.2680 271° West  Level FlightAware Approximate
Wed 10:48:00 AM 59.0954 -34.5091 271° West  Level FlightAware Approximate
Wed 10:49:00 AM 59.0961 -34.7502 270° West  Level FlightAware Approximate
Wed 10:50:00 AM 59.0963 -34.9913 270° West  Level FlightAware Approximate
Wed 10:51:00 AM 59.0961 -35.2324 270° West  Level FlightAware Approximate
Wed 10:51:57 AM 59.0833 -36.2667 269° West 520 598 36,000  Level Gander Center
Wed 10:52:00 AM 59.0955 -35.4735 270° West  Level FlightAware Approximate
Wed 10:52:57 AM 59.0833 -36.5333 270° West 510 587 36,000  Level Gander Center
Wed 10:53:00 AM 59.0944 -35.7146 270° West  Level FlightAware Approximate
Wed 10:53:57 AM 59.0833 -36.8167 270° West 510 587 36,000  Level Gander Center
Wed 10:54:00 AM 59.0928 -35.9556 269° West  Level FlightAware Approximate
Wed 10:54:57 AM 59.0833 -37.0500 270° West 510 587 36,000  Level Gander Center
Wed 10:55:00 AM 59.0908 -36.1967 269° West  Level FlightAware Approximate
Wed 10:55:57 AM 59.0833 -37.3333 270° West 510 587 36,000  Level Gander Center
Wed 10:56:00 AM 59.0884 -36.4377 269° West  Level FlightAware Approximate
Wed 10:56:57 AM 59.0833 -37.6000 270° West 510 587 36,000  Level Gander Center
Wed 10:57:00 AM 59.0855 -36.6786 269° West  Level FlightAware Approximate
Wed 10:57:57 AM 59.0667 -37.8833 264° West 510 587 36,000  Level Gander Center
Wed 10:58:57 AM 59.0667 -38.1500 270° West 510 587 36,000  Level Gander Center
Wed 10:59:57 AM 59.0500 -38.4333 264° West 510 587 36,000  Level Gander Center
Wed 11:00:57 AM 59.0500 -38.7000 270° West 510 587 36,000  Level Gander Center
Wed 11:01:57 AM 59.0500 -38.9833 270° West 510 587 36,000  Level Gander Center
Wed 11:02:57 AM 59.0333 -39.2500 263° West 510 587 36,000  Level Gander Center
Wed 11:03:57 AM 59.0167 -39.5333 264° West 510 587 36,000  Level Gander Center
Wed 11:04:57 AM 59.0167 -39.8000 270° West 510 587 36,000  Level Gander Center
Wed 11:05:57 AM 58.9833 -40.0500 256° West 510 587 36,000  Level Gander Center
Wed 11:06:57 AM 58.9333 -40.3167 250° West 520 598 36,000  Level Gander Center
Wed 11:07:57 AM 58.9167 -40.5667 263° West 510 587 36,000  Level Gander Center
Wed 11:08:57 AM 58.8667 -40.8333 250° West 510 587 36,000  Level Gander Center
Wed 11:09:57 AM 58.8167 -41.0833 249° West 510 587 36,000  Level Gander Center
Wed 11:10:57 AM 58.7667 -41.3500 250° West 510 587 36,000  Level Gander Center
Wed 11:11:57 AM 58.7500 -41.6000 263° West 510 587 36,000  Level Gander Center
Wed 11:12:57 AM 58.7000 -41.8500 249° West 510 587 36,000  Level Gander Center
Wed 11:13:57 AM 58.6500 -42.1167 250° West 510 587 36,000  Level Gander Center
Wed 11:14:57 AM 58.6000 -42.3667 249° West 520 598 36,000  Level Gander Center
Wed 11:15:57 AM 58.5500 -42.6333 250° West 520 598 36,000  Level Gander Center
Wed 11:16:57 AM 58.5167 -42.9000 257° West 520 598 36,000  Level Gander Center
Wed 11:17:57 AM 58.4667 -43.1500 249° West 520 598 36,000  Level Gander Center
Wed 11:18:57 AM 58.4167 -43.4167 250° West 520 598 36,000  Level Gander Center
Wed 11:19:57 AM 58.3667 -43.6667 249° West 520 598 36,000  Level Gander Center
Wed 11:20:57 AM 58.3167 -43.9167 249° West 520 598 36,000  Level Gander Center
Wed 11:21:57 AM 58.2667 -44.2000 252° West 520 598 36,000  Level Gander Center
Wed 11:22:57 AM 58.2333 -44.4500 256° West 520 598 36,000  Level Gander Center
Wed 11:23:57 AM 58.1833 -44.7000 249° West 520 598 36,000  Level Gander Center
Wed 11:24:57 AM 58.1333 -44.9500 249° West 510 587 36,000  Level Gander Center
Wed 11:25:57 AM 58.0833 -45.2000 249° West 510 587 36,000  Level Gander Center
Wed 11:26:57 AM 58.0333 -45.4333 248° West 510 587 36,000  Level Gander Center
Wed 11:27:57 AM 57.9833 -45.6833 249° West 500 575 36,000  Level Gander Center
Wed 11:28:57 AM 57.9333 -45.9333 249° West 500 575 36,000  Level Gander Center
Wed 11:29:57 AM 57.8833 -46.1667 248° West 500 575 36,000  Level Gander Center
Wed 11:30:57 AM 57.8333 -46.4167 250° West 500 575 36,000  Level Gander Center
Wed 11:31:57 AM 57.7833 -46.6667 250° West 500 575 36,000  Level Gander Center
Wed 11:32:57 AM 57.7333 -46.9000 248° West 500 575 36,000  Level Gander Center
Wed 11:33:57 AM 57.6667 -47.1167 240° Southwest 500 575 36,000  Level Gander Center
Wed 11:34:57 AM 57.6167 -47.3667 250° West 500 575 36,000  Level Gander Center
Wed 11:35:57 AM 57.5667 -47.6000 248° West 500 575 36,000  Level Gander Center
Wed 11:36:57 AM 57.5167 -47.8333 248° West 500 575 36,000  Level Gander Center
Wed 11:37:57 AM 57.4500 -48.0833 244° Southwest 500 575 36,000  Level Gander Center
Wed 11:38:57 AM 57.4167 -48.3167 255° West 500 575 36,000  Level Gander Center
Wed 11:39:57 AM 57.3500 -48.5500 242° Southwest 500 575 36,000  Level Gander Center
Wed 11:40:57 AM 57.3000 -48.7667 247° West 500 575 36,000  Level Gander Center
Wed 11:41:57 AM 57.2333 -49.0000 242° Southwest 500 575 36,000  Level Gander Center
Wed 11:42:57 AM 57.1833 -49.2333 249° West 500 575 36,000  Level Gander Center
Wed 11:43:57 AM 57.1333 -49.4667 249° West 490 564 36,000  Level Gander Center
Wed 11:44:57 AM 57.0667 -49.7000 242° Southwest 490 564 36,000  Level Gander Center
Wed 11:45:57 AM 57.0167 -49.9000 245° Southwest 490 564 36,000  Level Gander Center
Wed 11:46:57 AM 56.9667 -50.1333 249° West 480 552 36,000  Level Gander Center
Wed 11:47:31 AM 56.9500 -50.3000 260° West 480 552 36,000  Level Gander Center
Wed 11:47:57 AM 56.9333 -50.4000 253° West 480 552 36,000  Level Gander Center
Wed 11:49:00 AM 56.8825 -50.6226 247° West  Level FlightAware Approximate
Wed 11:56:00 AM 56.5340 -52.0910 247° West  Level FlightAware Approximate
Wed 11:57:00 AM 56.4828 -52.2985 246° West  Level FlightAware Approximate
Wed 11:58:00 AM 56.4313 -52.5055 246° West  Level FlightAware Approximate
Wed 11:59:00 AM 56.3794 -52.7119 246° West  Level FlightAware Approximate
Wed 12:00:00 PM 56.3272 -52.9178 245° Southwest  Level FlightAware Approximate
Wed 12:01:00 PM 56.2746 -53.1231 245° Southwest  Level FlightAware Approximate
Wed 12:02:00 PM 56.2217 -53.3278 245° Southwest  Level FlightAware Approximate
Wed 12:03:00 PM 56.1684 -53.5319 245° Southwest  Level FlightAware Approximate
Wed 12:04:00 PM 56.1149 -53.7355 245° Southwest  Level FlightAware Approximate
Wed 12:05:00 PM 56.0610 -53.9385 245° Southwest  Level FlightAware Approximate
Wed 12:06:00 PM 56.0067 -54.1410 244° Southwest  Level FlightAware Approximate
Wed 12:07:00 PM 55.9521 -54.3429 244° Southwest  Level FlightAware Approximate
Wed 12:08:00 PM 55.8973 -54.5442 244° Southwest  Level FlightAware Approximate
Wed 12:09:00 PM 55.8420 -54.7449 244° Southwest  Level FlightAware Approximate
Wed 12:10:00 PM 55.7865 -54.9451 244° Southwest  Level FlightAware Approximate
Wed 12:11:00 PM 55.7306 -55.1447 244° Southwest  Level FlightAware Approximate
Wed 12:12:00 PM 55.6892 -55.3550 251° West  Level Estimated
Wed 12:13:00 PM 55.6474 -55.5648 251° West  Level Estimated
Wed 12:13:29 PM 55.7500 -56.1167 250° West 470 541 36,000  Level Gander Center
Wed 12:14:00 PM 55.6052 -55.7743 250° West  Level Estimated
Wed 12:14:29 PM 55.7000 -56.3000 244° Southwest 460 529 36,000  Level Gander Center
Wed 12:15:00 PM 55.5628 -55.9832 250° West  Level Estimated
Wed 12:15:29 PM 55.6500 -56.5167 248° West 460 529 36,000  Level Gander Center
Wed 12:16:00 PM 55.5199 -56.1917 250° West  Level Estimated
Wed 12:16:29 PM 55.6000 -56.7333 248° West 460 529 36,000  Level Gander Center
Wed 12:17:00 PM 55.4767 -56.3998 250° West  Level Estimated
Wed 12:17:29 PM 55.5500 -56.9333 246° West 460 529 36,000  Level Gander Center
Wed 12:18:00 PM 55.4332 -56.6074 250° West  Level Estimated
Wed 12:18:29 PM 55.4833 -57.1167 237° Southwest 460 529 36,000  Level Gander Center
Wed 12:19:29 PM 55.4333 -57.3667 251° West 460 529 36,000  Level Gander Center
Wed 12:20:29 PM 55.3833 -57.5500 244° Southwest 460 529 36,000  Level Gander Center
Wed 12:21:29 PM 55.3333 -57.7500 246° West 460 529 36,000  Level Gander Center
Wed 12:22:29 PM 55.2667 -57.9667 242° Southwest 460 529 36,000  Level Gander Center
Wed 12:23:29 PM 55.2333 -58.1500 252° West 460 529 36,000  Level Gander Center
Wed 12:24:29 PM 55.1667 -58.3500 240° Southwest 460 529 36,000  Level Gander Center
Wed 12:25:29 PM 55.1167 -58.5667 248° West 450 518 36,000  Level Gander Center
Wed 12:26:29 PM 55.0667 -58.7667 246° West 450 518 36,000  Level Gander Center
Wed 12:27:29 PM 55.0167 -58.9500 245° Southwest 450 518 36,000  Level Gander Center
Wed 12:28:29 PM 54.9500 -59.1500 240° Southwest 450 518 36,000  Level Gander Center
Wed 12:29:29 PM 54.9000 -59.3333 245° Southwest 450 518 36,000  Level Gander Center
Wed 12:30:29 PM 54.8333 -59.5333 240° Southwest 450 518 36,000  Level Gander Center
Wed 12:31:29 PM 54.7833 -59.7167 245° Southwest 440 506 36,000  Level Gander Center
Wed 12:32:29 PM 54.7500 -59.9167 254° West 440 506 36,000  Level Gander Center
Wed 12:33:29 PM 54.6833 -60.1333 242° Southwest 450 518 36,000  Level Gander Center
Wed 12:34:29 PM 54.6333 -60.3000 243° Southwest 450 518 36,000 300 Level Gander Center
Wed 12:35:29 PM 54.5667 -60.5000 240° Southwest 440 506 36,600 600 Climbing Gander Center
Wed 12:36:29 PM 54.5167 -60.6833 245° Southwest 440 506 37,200 600 Climbing Gander Center
Wed 12:37:29 PM 54.4500 -60.8833 240° Southwest 440 506 37,800 400 Climbing Gander Center
Wed 12:38:29 PM 54.4000 -61.0500 243° Southwest 440 506 38,000 100 Climbing Gander Center
Wed 12:39:29 PM 54.3333 -61.2500 240° Southwest 450 518 38,000  Level Gander Center
Wed 12:40:29 PM 54.2833 -61.4333 245° Southwest 450 518 38,000  Level Gander Center
Wed 12:41:29 PM 54.2167 -61.6333 240° Southwest 450 518 38,000  Level Gander Center
Wed 12:42:29 PM 54.1667 -61.8167 245° Southwest 450 518 38,000  Level Gander Center
Wed 12:43:29 PM 54.1167 -62.0000 245° Southwest 460 529 38,000  Level Gander Center
Wed 12:44:29 PM 54.0500 -62.2000 240° Southwest 460 529 38,000  Level Gander Center
Wed 12:45:29 PM 54.0000 -62.3833 245° Southwest 460 529 38,000  Level Gander Center
Wed 12:46:29 PM 53.9167 -62.5833 235° Southwest 460 529 38,000  Level Gander Center
Wed 12:47:29 PM 53.8500 -62.7500 236° Southwest 460 529 38,000  Level Gander Center
Wed 12:48:29 PM 53.8000 -62.9500 247° West 460 529 38,000  Level Gander Center
Wed 12:49:29 PM 53.7333 -63.1500 241° Southwest 460 529 38,000  Level Gander Center
Wed 12:50:29 PM 53.6833 -63.3500 247° West 460 529 38,000  Level Gander Center
Wed 12:51:29 PM 53.6167 -63.5333 239° Southwest 460 529 38,000  Level Gander Center
Wed 12:52:29 PM 53.5500 -63.7000 236° Southwest 460 529 38,000  Level Gander Center
Wed 12:53:29 PM 53.4833 -63.9000 241° Southwest 450 518 38,000  Level Gander Center
Wed 12:54:29 PM 53.4333 -64.0833 245° Southwest 460 529 38,000  Level Gander Center
Wed 12:55:29 PM 53.3667 -64.2833 241° Southwest 460 529 38,000  Level Gander Center
Wed 12:56:29 PM 53.3000 -64.4500 236° Southwest 460 529 38,000  Level Gander Center
Wed 12:57:29 PM 53.2333 -64.6333 239° Southwest 450 518 38,000  Level Gander Center
Wed 12:58:29 PM 53.1833 -64.8333 247° West 460 529 38,000  Level Gander Center
Wed 12:59:29 PM 53.1000 -65.0167 233° Southwest 460 529 38,000  Level Gander Center
Wed 01:00:29 PM 53.0333 -65.1833 236° Southwest 460 529 38,000  Level Gander Center
Wed 01:01:29 PM 52.9833 -65.3667 246° West 460 529 38,000  Level Gander Center
Wed 01:02:29 PM 52.9000 -65.5500 233° Southwest 460 529 38,000  Level Gander Center
Wed 01:03:29 PM 52.8500 -65.7333 246° West 460 529 38,000  Level Gander Center
Wed 01:04:29 PM 52.7667 -65.9000 230° Southwest 460 529 38,000  Level Gander Center
Wed 01:05:29 PM 52.7167 -66.0833 246° West 460 529 38,000  Level Gander Center
Wed 01:06:29 PM 52.6333 -66.2667 233° Southwest 460 529 38,000  Level Gander Center
Wed 01:07:29 PM 52.5833 -66.4667 248° West 460 529 38,000  Level Gander Center
Wed 01:08:19 PM 52.5167 -66.5333 211° Southwest 450 518 38,000  Level Montreal Center
Wed 01:09:19 PM 52.4500 -66.7167 239° Southwest 460 529 38,000  Level Montreal Center
Wed 01:10:19 PM 52.3833 -66.9000 239° Southwest 460 529 38,000  Level Montreal Center
Wed 01:11:19 PM 52.3333 -67.0833 246° West 460 529 38,000  Level Montreal Center
Wed 01:12:19 PM 52.2500 -67.2667 233° Southwest 460 529 38,000  Level Montreal Center
Wed 01:13:19 PM 52.1833 -67.4333 237° Southwest 450 518 38,000  Level Montreal Center
Wed 01:14:19 PM 52.1167 -67.6167 239° Southwest 450 518 38,000  Level Montreal Center
Wed 01:15:19 PM 52.0333 -67.7667 228° Southwest 450 518 38,000  Level Montreal Center
Wed 01:16:19 PM 51.9667 -67.9500 240° Southwest 450 518 38,000  Level Montreal Center
Wed 01:17:29 PM 51.8833 -68.2000 242° Southwest 450 518 38,000  Level Gander Center
Wed 01:18:19 PM 51.8333 -68.2667 219° Southwest 450 518 38,000  Level Montreal Center
Wed 01:19:19 PM 51.7667 -68.4500 240° Southwest 450 518 38,000  Level Montreal Center
Wed 01:20:19 PM 51.7167 -68.6167 244° Southwest 450 518 38,000  Level Montreal Center
Wed 01:21:19 PM 51.6333 -68.8000 234° Southwest 440 506 38,000  Level Montreal Center
Wed 01:22:19 PM 51.5667 -68.9500 234° Southwest 440 506 38,000  Level Montreal Center
Wed 01:23:19 PM 51.4833 -69.1167 231° Southwest 440 506 38,000  Level Montreal Center
Wed 01:24:19 PM 51.4333 -69.2833 244° Southwest 450 518 38,000  Level Montreal Center
Wed 01:25:19 PM 51.3500 -69.4667 234° Southwest 450 518 38,000  Level Montreal Center
Wed 01:26:19 PM 51.3000 -69.6333 244° Southwest 440 506 38,000  Level Montreal Center
Wed 01:27:19 PM 51.2167 -69.8000 231° Southwest 440 506 38,000  Level Montreal Center
Wed 01:28:19 PM 51.1667 -69.9500 242° Southwest 440 506 38,000  Level Montreal Center
Wed 01:29:19 PM 51.1000 -70.1500 242° Southwest 440 506 38,000  Level Montreal Center
Wed 01:30:19 PM 51.0500 -70.2833 239° Southwest 450 518 38,000  Level Montreal Center
Wed 01:31:19 PM 50.9667 -70.4833 237° Southwest 450 518 38,000  Level Montreal Center
Wed 01:32:19 PM 50.9167 -70.6500 245° Southwest 450 518 38,000  Level Montreal Center
Wed 01:33:19 PM 50.8333 -70.8167 232° Southwest 450 518 38,000  Level Montreal Center
Wed 01:34:29 PM 50.7500 -71.0500 241° Southwest 460 529 38,000  Level Gander Center
Wed 01:35:19 PM 50.7000 -71.1500 232° Southwest 450 518 38,000  Level Montreal Center
Wed 01:41:18 PM 50.2910 -72.1820 232° Southwest 463 533 38,000  Level FlightAware ADS-B
Wed 01:42:03 PM 50.2430 -72.2940 236° Southwest 464 534 38,000  Level FlightAware ADS-B
Wed 01:42:46 PM 50.1930 -72.4130 237° Southwest 464 534 38,000  Level FlightAware ADS-B
Wed 01:43:24 PM 50.1490 -72.5190 237° Southwest 465 535 38,000  Level FlightAware ADS-B
Wed 01:44:03 PM 50.1000 -72.6320 236° Southwest 466 536 38,000  Level FlightAware ADS-B
Wed 01:44:45 PM 50.0470 -72.7560 236° Southwest 467 537 38,000  Level FlightAware ADS-B
Wed 01:45:32 PM 49.9880 -72.8940 236° Southwest 468 539 38,000  Level FlightAware ADS-B
Wed 01:46:07 PM 49.9470 -72.9880 236° Southwest 469 540 38,000  Level FlightAware ADS-B
Wed 01:47:03 PM 49.8870 -73.1240 236° Southwest 469 540 38,000  Level FlightAware ADS-B
Wed 01:47:40 PM 49.8480 -73.2110 235° Southwest 469 540 38,000  Level FlightAware ADS-B
Wed 01:48:30 PM 49.7950 -73.3280 235° Southwest 469 540 38,000  Level FlightAware ADS-B
Wed 01:49:09 PM 49.7530 -73.4190 234° Southwest 469 540 38,000  Level FlightAware ADS-B
Wed 01:49:46 PM 49.7140 -73.5060 235° Southwest 469 540 38,000  Level FlightAware ADS-B
Wed 01:50:25 PM 49.6730 -73.5970 235° Southwest 469 540 38,000  Level FlightAware ADS-B
Wed 01:51:12 PM 49.6230 -73.7070 235° Southwest 469 540 38,000  Level FlightAware ADS-B
Wed 01:51:48 PM 49.5850 -73.7910 235° Southwest 469 540 38,000  Level FlightAware ADS-B
Wed 01:52:34 PM 49.5360 -73.8980 235° Southwest 469 540 38,000  Level FlightAware ADS-B
Wed 01:53:13 PM 49.4950 -73.9880 235° Southwest 469 540 38,000  Level FlightAware ADS-B
Wed 01:54:01 PM 49.4440 -74.1000 235° Southwest 469 540 38,000  Level FlightAware ADS-B
Wed 01:54:35 PM 49.4080 -74.1790 235° Southwest 469 540 38,000  Level FlightAware ADS-B
Wed 01:55:40 PM 49.3400 -74.3300 235° Southwest 469 540 38,000  Level FlightAware ADS-B
Wed 01:56:14 PM 49.3040 -74.4090 235° Southwest 469 540 38,000  Level FlightAware ADS-B
Wed 01:57:19 PM 49.1167 -74.8167 235° Southwest 460 529 38,000  Level Montreal Center
Wed 01:58:19 PM 49.0500 -74.9667 236° Southwest 460 529 38,000  Level Montreal Center
Wed 01:59:19 PM 48.9667 -75.1167 230° Southwest 460 529 38,000  Level Montreal Center
Wed 02:00:19 PM 48.9000 -75.3000 241° Southwest 460 529 38,000  Level Montreal Center
Wed 02:01:19 PM 48.8167 -75.4500 230° Southwest 460 529 38,000  Level Montreal Center
Wed 02:02:19 PM 48.7500 -75.6167 239° Southwest 470 541 38,000  Level Montreal Center
Wed 02:03:19 PM 48.6667 -75.7833 233° Southwest 470 541 38,000  Level Montreal Center
Wed 02:04:19 PM 48.6000 -75.9333 236° Southwest 460 529 38,000  Level Montreal Center
Wed 02:05:19 PM 48.5167 -76.1000 233° Southwest 470 541 38,000  Level Montreal Center
Wed 02:06:19 PM 48.4333 -76.2500 230° Southwest 470 541 38,000  Level Montreal Center
Wed 02:07:19 PM 48.3667 -76.4167 239° Southwest 470 541 38,000  Level Montreal Center
Wed 02:12:36 PM 47.9610 -77.2190 239° Southwest 38,000  Level FlightAware ADS-B
Wed 02:13:12 PM 47.9150 -77.3110 233° Southwest 466 536 38,000  Level FlightAware ADS-B
Wed 02:14:15 PM 47.8250 -77.4850 232° Southwest 466 536 38,000  Level FlightAware ADS-B
Wed 02:14:59 PM 47.7730 -77.5860 233° Southwest 466 536 38,000  Level FlightAware ADS-B
Wed 02:15:36 PM 47.7320 -77.6650 232° Southwest 466 536 38,000  Level FlightAware ADS-B
Wed 02:16:36 PM 47.6640 -77.7940 232° Southwest 466 536 38,000  Level FlightAware ADS-B
Wed 02:17:11 PM 47.6240 -77.8690 232° Southwest 466 536 38,000  Level FlightAware ADS-B
Wed 02:17:58 PM 47.5710 -77.9690 232° Southwest 466 536 38,000  Level FlightAware ADS-B
Wed 02:18:37 PM 47.5270 -78.0530 232° Southwest 466 536 38,000  Level FlightAware ADS-B
Wed 02:19:23 PM 47.4750 -78.1510 232° Southwest 466 536 38,000  Level FlightAware ADS-B
Wed 02:19:59 PM 47.4350 -78.2280 232° Southwest 466 536 38,000  Level FlightAware ADS-B
Wed 02:20:48 PM 47.3800 -78.3320 232° Southwest 466 536 38,000  Level FlightAware ADS-B
Wed 02:21:26 PM 47.3370 -78.4130 232° Southwest 466 536 38,000  Level FlightAware ADS-B
Wed 02:22:26 PM 47.2690 -78.5410 232° Southwest 466 536 38,000  Level FlightAware ADS-B
Wed 02:23:00 PM 47.2310 -78.6140 233° Southwest 466 536 38,000  Level FlightAware ADS-B
Wed 02:23:50 PM 47.1740 -78.7200 232° Southwest 466 536 38,000  Level FlightAware ADS-B
Wed 02:24:28 PM 47.1310 -78.8010 232° Southwest 466 536 38,000  Level FlightAware ADS-B
Wed 02:27:31 PM 46.7840 -79.4470 232° Southwest 457 526 38,000  Level FlightAware ADS-B
Wed 02:28:11 PM 46.7290 -79.5450 231° Southwest 458 527 38,000  Level FlightAware ADS-B
Wed 02:29:11 PM 46.6500 -79.6900 232° Southwest 462 532 38,000  Level FlightAware ADS-B
Wed 02:29:50 PM 46.6050 -79.7690 230° Southwest 462 532 38,000  Level FlightAware ADS-B
Wed 02:30:21 PM 46.5680 -79.8350 231° Southwest 462 532 38,000  Level FlightAware ADS-B
Wed 02:31:17 PM 46.5060 -79.9460 231° Southwest 464 534 38,000  Level FlightAware ADS-B
Wed 02:32:04 PM 46.4250 -80.0890 231° Southwest 466 536 38,000  Level FlightAware ADS-B
Wed 02:32:51 PM 46.3550 -80.2150 231° Southwest 466 536 38,000  Level FlightAware ADS-B
Wed 02:33:36 PM 46.2910 -80.3280 231° Southwest 464 534 38,000  Level FlightAware ADS-B
Wed 02:34:16 PM 46.2360 -80.4240 230° Southwest 463 533 38,000  Level FlightAware ADS-B
Wed 02:34:57 PM 46.1840 -80.5160 231° Southwest 463 533 38,000  Level FlightAware ADS-B
Wed 02:35:36 PM 46.1330 -80.6040 230° Southwest 463 533 38,000  Level FlightAware ADS-B
Wed 02:36:31 PM 46.0570 -80.7370 231° Southwest 465 535 38,000  Level FlightAware ADS-B
Wed 02:37:19 PM 45.9810 -80.8690 230° Southwest 467 537 38,000  Level FlightAware ADS-B
Wed 02:37:41 PM 45.9560 -80.9110 229° Southwest 467 537 38,000  Level FlightAware ADS-B
Wed 02:38:46 PM 45.8680 -81.0640 230° Southwest 465 535 38,000  Level FlightAware ADS-B
Wed 02:39:42 PM 45.8010 -81.1740 229° Southwest 467 537 38,000  Level FlightAware ADS-B
Wed 02:40:16 PM 45.7510 -81.2620 231° Southwest 465 535 38,000  Level FlightAware ADS-B
Wed 02:41:01 PM 45.6830 -81.3780 230° Southwest 462 532 38,000  Level FlightAware ADS-B
Wed 02:41:45 PM 45.6260 -81.4750 230° Southwest 38,000  Level FlightAware ADS-B
Wed 02:42:38 PM 45.5410 -81.6180 230° Southwest 458 527 38,000  Level FlightAware ADS-B
Wed 02:43:25 PM 45.4770 -81.7240 229° Southwest 457 526 38,000  Level FlightAware ADS-B
Wed 02:44:05 PM 45.4220 -81.8170 230° Southwest 456 525 38,000  Level FlightAware ADS-B
Wed 02:44:47 PM 45.3650 -81.9120 230° Southwest 454 522 38,000  Level FlightAware ADS-B
Wed 02:45:45 PM 45.3150 -81.9950 229° Southwest 453 521 38,000  Level FlightAware ADS-B
Wed 02:46:39 PM 45.2280 -82.1390 229° Southwest 453 521 38,000  Level FlightAware ADS-B
Wed 02:47:21 PM 45.1570 -82.2550 229° Southwest 453 521 38,000  Level FlightAware ADS-B
Wed 02:48:03 PM 45.1110 -82.3310 229° Southwest 455 524 38,000  Level FlightAware ADS-B
Wed 02:48:44 PM 45.0420 -82.4440 229° Southwest 457 526 38,000  Level FlightAware ADS-B
Wed 02:49:29 PM 44.9780 -82.5470 229° Southwest 459 528 38,000  Level FlightAware ADS-B
Wed 02:50:09 PM 44.9230 -82.6370 229° Southwest 460 529 38,000  Level FlightAware ADS-B
Wed 02:51:07 PM 44.8410 -82.7690 229° Southwest 462 532 38,000  Level FlightAware ADS-B
Wed 02:51:45 PM 44.7870 -82.8560 229° Southwest 464 534 38,000  Level FlightAware ADS-B
Wed 02:52:24 PM 44.7340 -82.9420 229° Southwest 464 534 38,000  Level FlightAware ADS-B
Wed 02:53:10 PM 44.6680 -83.0470 229° Southwest 466 536 38,000  Level FlightAware ADS-B
Wed 02:53:53 PM 44.6060 -83.1460 229° Southwest 466 536 38,000  Level FlightAware ADS-B
Wed 02:54:36 PM 44.5450 -83.2420 228° Southwest 468 539 38,000  Level FlightAware ADS-B
Wed 02:55:17 PM 44.4870 -83.3350 229° Southwest 468 539 38,000  Level FlightAware ADS-B
Wed 02:55:55 PM 44.4520 -83.4050 235° Southwest 455 524 38,000 -414 Level FlightAware ADS-B
Wed 02:56:15 PM 44.4300 -83.4840 249° West 439 505 37,600 -984 Descending FlightAware ADS-B
Wed 02:56:56 PM 44.4050 -83.5930 252° West 442 509 37,000 -815 Descending FlightAware ADS-B
Wed 02:57:36 PM 44.3690 -83.6960 244° Southwest 446 513 36,500 -732 Descending FlightAware ADS-B
Wed 02:58:18 PM 44.3240 -83.7990 239° Southwest 449 517 36,000 -349 Descending FlightAware ADS-B
Wed 02:59:02 PM 44.2760 -83.9100 239° Southwest 450 518 36,000  Level FlightAware ADS-B
Wed 02:59:43 PM 44.2320 -84.0130 239° Southwest 450 518 36,000 -141 Level FlightAware ADS-B
Wed 03:00:27 PM 44.1840 -84.1210 238° Southwest 442 509 35,800 -433 Descending FlightAware ADS-B
Wed 03:01:20 PM 44.1290 -84.2470 239° Southwest 438 504 35,300 -638 Descending FlightAware ADS-B
Wed 03:02:01 PM 44.0850 -84.3470 239° Southwest 438 504 34,800 -837 Descending FlightAware ADS-B
Wed 03:02:46 PM 44.0380 -84.4530 238° Southwest 443 510 34,100 -552 Descending FlightAware ADS-B
Wed 03:03:28 PM 43.9920 -84.5570 238° Southwest 451 519 34,000 -73 Descending FlightAware ADS-B
Wed 03:04:08 PM 43.9480 -84.6550 238° Southwest 452 520 34,000  Level FlightAware ADS-B
Wed 03:04:51 PM 43.9000 -84.7620 238° Southwest 452 520 34,000  Level FlightAware ADS-B
Wed 03:05:34 PM 43.8540 -84.8640 238° Southwest 452 520 34,000 -434 Level FlightAware ADS-B
Wed 03:06:14 PM 43.8090 -84.9630 238° Southwest 454 522 33,400 -1,059 Descending FlightAware ADS-B
Wed 03:06:59 PM 43.7580 -85.0770 238° Southwest 463 533 32,500 -1,000 Descending FlightAware ADS-B
Wed 03:07:38 PM 43.7120 -85.1700 236° Southwest 472 543 32,000 -357 Descending FlightAware ADS-B
Wed 03:08:23 PM 43.6230 -85.2380 209° Southwest 494 568 32,000  Level FlightAware ADS-B
Wed 03:09:01 PM 43.5380 -85.2650 193° South 495 570 32,000  Level FlightAware ADS-B
Wed 03:09:46 PM 43.4390 -85.2950 192° South 494 568 32,000  Level FlightAware ADS-B
Wed 03:10:29 PM 43.3420 -85.3250 193° South 495 570 32,000 -550 Level FlightAware ADS-B
Wed 03:11:35 PM 43.2520 -85.3530 193° South 487 560 31,000 -1,912 Descending FlightAware ADS-B
Wed 03:12:22 PM 43.0980 -85.4010 193° South 468 539 28,400 -2,069 Descending FlightAware ADS-B
Wed 03:13:02 PM 43.0150 -85.4270 193° South 463 533 28,000 -308 Descending FlightAware ADS-B
Wed 03:13:40 PM 42.9330 -85.4520 193° South 461 531 28,000 -1,084 Level FlightAware ADS-B
Wed 03:14:25 PM 42.8450 -85.4810 194° South 435 501 26,500 -1,541 Descending FlightAware ADS-B
Wed 03:14:54 PM 42.8000 -85.5200 212° Southwest 382 440 26,100 -870 Descending FlightAware ADS-B
Wed 03:15:34 PM 42.7680 -85.6000 241° Southwest 337 388 25,500 -857 Descending FlightAware ADS-B
Wed 03:16:11 PM 42.7540 -85.6770 256° West 342 394 25,000 -614 Descending FlightAware ADS-B
Wed 03:17:02 PM 42.7360 -85.7810 257° West 333 383 24,600 -733 Descending FlightAware ADS-B
Wed 03:17:41 PM 42.7220 -85.8600 256° West 318 366 23,900 -1,185 Descending FlightAware ADS-B
Wed 03:18:23 PM 42.7070 -85.9410 256° West 305 351 23,000 -1,129 Descending FlightAware ADS-B
Wed 03:19:06 PM 42.6920 -86.0200 256° West 300 345 22,300 -977 Descending FlightAware ADS-B
Wed 03:19:49 PM 42.6780 -86.0960 256° West 293 337 21,600 -988 Descending FlightAware ADS-B
Wed 03:20:31 PM 42.6640 -86.1730 256° West 295 339 20,900 -1,024 Descending FlightAware ADS-B
Wed 03:21:11 PM 42.6510 -86.2450 256° West 293 337 20,200 -1,000 Descending FlightAware ADS-B
Wed 03:21:55 PM 42.6370 -86.3210 256° West 289 333 19,500 -988 Descending FlightAware ADS-B
Wed 03:22:36 PM 42.6230 -86.3930 255° West 286 329 18,800 -1,000 Descending FlightAware ADS-B
Wed 03:23:19 PM 42.6100 -86.4660 256° West 280 322 18,100 -1,000 Descending FlightAware ADS-B
Wed 03:24:00 PM 42.5960 -86.5360 255° West 276 318 17,400 -1,012 Descending FlightAware ADS-B
Wed 03:24:42 PM 42.5830 -86.6060 256° West 276 318 16,700 -971 Descending FlightAware ADS-B
Wed 03:25:08 PM 42.5750 -86.6510 256° West 276 318 16,300 -1,000 Descending FlightAware ADS-B
Wed 03:25:48 PM 42.5620 -86.7190 255° West 278 320 15,600 -1,023 Descending FlightAware ADS-B
Wed 03:26:36 PM 42.5410 -86.7950 249° West 276 318 14,800 -955 Descending FlightAware ADS-B
Wed 03:27:16 PM 42.5240 -86.8600 250° West 273 314 14,200 -1,098 Descending FlightAware ADS-B
Wed 03:27:58 PM 42.5060 -86.9260 250° West 270 311 13,300 -1,446 Descending FlightAware ADS-B
Wed 03:28:39 PM 42.4880 -86.9920 250° West 278 320 12,200 -1,615 Descending FlightAware ADS-B
Wed 03:29:16 PM 42.4710 -87.0540 250° West 277 319 11,200 -795 Descending FlightAware ADS-B
Wed 03:30:02 PM 42.4510 -87.1270 250° West 269 310 11,100 -607 Descending FlightAware ADS-B
Wed 03:30:45 PM 42.4330 -87.1920 249° West 267 307 10,300 -1,222 Descending FlightAware ADS-B
Wed 03:30:56 PM 42.4280 -87.2120 251° West 270 311 10,000 -1,395 Descending FlightAware ADS-B
Wed 03:31:28 PM 42.4140 -87.2630 250° West 266 306 9,300 -1,019 Descending FlightAware ADS-B
Wed 03:31:49 PM 42.4050 -87.2950 249° West 269 310 9,100 -176 Descending FlightAware ADS-B
Wed 03:32:36 PM 42.3900 -87.3410 246° West 269 310 9,100 -78 Level FlightAware ADS-B
Wed 03:33:06 PM 42.3660 -87.4130 246° West 266 306 9,000 -750 Descending FlightAware ADS-B
Wed 03:33:32 PM 42.3530 -87.4530 246° West 265 305 8,400 -1,345 Descending FlightAware ADS-B
Wed 03:34:04 PM 42.3370 -87.5010 246° West 263 303 7,700 -1,241 Descending FlightAware ADS-B
Wed 03:34:30 PM 42.3200 -87.5370 237° Southwest 266 306 7,200 -667 Descending FlightAware ADS-B
Wed 03:34:58 PM 42.2940 -87.5680 221° Southwest 266 306 7,100 -118 Descending FlightAware ADS-B
Wed 03:35:21 PM 42.2740 -87.5900 219° Southwest 259 298 7,100  Level FlightAware ADS-B
Wed 03:35:41 PM 42.2550 -87.6110 219° Southwest 238 274 7,100 -383 Level FlightAware ADS-B
Wed 03:36:08 PM 42.2330 -87.6350 219° Southwest 226 260 6,800 -923 Descending FlightAware ADS-B
Wed 03:36:20 PM 42.2230 -87.6470 222° Southwest 230 265 6,500 -1,463 Descending FlightAware ADS-B
Wed 03:36:49 PM 42.1990 -87.6730 219° Southwest 232 267 5,800 -1,263 Descending FlightAware ADS-B
Wed 03:37:17 PM 42.1770 -87.6980 220° Southwest 218 251 5,300 -1,158 Descending FlightAware ADS-B
Wed 03:37:46 PM 42.1550 -87.7220 219° Southwest 208 239 4,700 -1,119 Descending FlightAware ADS-B
Wed 03:38:16 PM 42.1330 -87.7470 220° Southwest 208 239 4,200 -1,071 Descending FlightAware ADS-B
Wed 03:38:42 PM 42.1130 -87.7680 218° Southwest 203 234 3,700 -1,111 Descending FlightAware ADS-B
Wed 03:39:10 PM 42.0940 -87.7900 221° Southwest 198 228 3,200 -1,071 Descending FlightAware ADS-B
Wed 03:39:38 PM 42.0740 -87.8120 219° Southwest 192 221 2,700 -900 Descending FlightAware ADS-B
Wed 03:39:50 PM 42.0660 -87.8210 220° Southwest 187 215 2,600 -857 Descending FlightAware ADS-B
Wed 03:40:20 PM 42.0470 -87.8420 219° Southwest 170 196 2,100 -1,000 Descending FlightAware ADS-B
Wed 03:40:50 PM 42.0290 -87.8610 218° Southwest 148 170 1,600 -906 Descending FlightAware ADS-B
Wed 03:41:13 PM 42.0180 -87.8740 221° Southwest 152 175 1,300 -792 Descending FlightAware ADS-B
Wed 03:41:43 PM 42.0010 -87.8920 218° Southwest 155 178 900 -800 Descending FlightAware ADS-B
Wed 03:42:10 PM 41.9870 -87.9080 220° Southwest 105 121 -2,000 Descending FlightAware ADS-B
Wed 03:42:39 PM 41.9830 -87.9120 217° Southwest 24 28  Level FlightAware ADS-B
Wed 03:43:03 PM 41.9820 -87.9120 180° South 16 18  Level FlightAware ADS-B
Wed 03:43:49 PM 41.9820 -87.9100 90° East 33 38  Level FlightAware ADS-B

Login

Don't have an account? Register now (free) for customized features, flight alerts, and more!